Curtis, NE (69025)

12:40 PM CST on March 01, 2017 (GMT -0600)
ME5422 | | Change Station

Elev 3158 ft 40.63 °N, 100.86 °W | Updated 14 minutes ago

Clear
Clear
40.0 °F
Feels Like 31 °F
N
17.0
Wind Variable Wind from WNW

Today
High -- | Low -- °F
--% Chance of Precip.
Yesterday
High -- | Low -- °F
Precip. -- in
Pressure 30.26 in
Visibility 10.0 miles
Clouds Clear
Windchill 31 °F
Dew Point 14 °F
Humidity 34%
Rainfall 0.04 in
Snow Depth Not available.
7:15 AM 6:33 PM
Waxing Crescent, 12% visible
METAR KMCK 011753Z AUTO 32025G32KT 10SM CLR 08/M12 A3022 RMK AO2 PK WND 32032/1707 SLP246 T00781117 10078 21039 51020
Pressure 30.26 in
Visibility 10.0 miles
Clouds Clear
Windchill 31 °F
Dew Point 14 °F
Humidity 34%
Rainfall 0.04 in
Snow Depth Not available.
7:15 AM 6:33 PM
Waxing Crescent, 12% visible
METAR KMCK 011753Z AUTO 32025G32KT 10SM CLR 08/M12 A3022 RMK AO2 PK WND 32032/1707 SLP246 T00781117 10078 21039 51020

Get Your Daily Forecast Email!

Thanks for signing up!

Be on the lookout for a verification email in your inbox.

You'll start receiving the daily forecast at 8 AM.

×

10-Day Weather Forecast

Almanac

Astronomy

Mar. 01, 2017 Rise Set
Actual Time
Civil Twilight
Nautical Twilight
Astronomical Twilight
Moon
Length of Visible Light
Length of Day
Tomorrow will be .
, % of the Moon is Illuminated

Today's Extremes

State Highs State Lows

Community

WunderPhotos

Upload Photos

1,962,540 photos uploaded!

WunderBlog® & News

Nearby

Air Quality

  Air Quality AQ Index Pollutant
Not available.

Snow Depth

Station Depth Elevation

Earthquake Activity

City Distance Mag. Time & Date
Minimum magnitude displayed is 2.5.

Coastal Water Temperatures

Place Temperature

Stations

Nearby Weather Stations

Station Location Temp. Windchill Dew Point Humidity Wind Precip. Elev Updated Type
                   

Watches & Warnings

There are currently no watches in effect.